Time;durP1;ratioP1;P1;durP2;ratioP2;P2;SDS_P1;SDS_P2;PMS_P1;PMS_P2;Temp;Humidity;BMP_temperature;BMP_pressure;BME280_temperature;BME280_humidity;BME280_pressure;Samples;Min_cycle;Max_cycle;Signal;HPM_P1;HPM_P2
2022/09/03 00:00:24;;;;;;;18.48;10.68;;;18.10;99.90;;;;;;5037710;28;20026;-59
2022/09/03 00:03:05;;;;;;;13.10;10.48;;;18.00;99.90;;;;;;5037555;28;20053;-58
2022/09/03 00:06:07;;;;;;;19.60;10.93;;;18.00;99.90;;;;;;5004626;28;20125;-58
2022/09/03 00:08:48;;;;;;;18.52;10.65;;;18.00;99.90;;;;;;5037502;28;20034;-57
2022/09/03 00:11:44;;;;;;;13.45;10.13;;;17.90;99.90;;;;;;5005956;28;20038;-58
2022/09/03 00:14:14;;;;;;;15.35;10.57;;;17.90;99.90;;;;;;5000665;28;20076;-59
2022/09/03 00:16:49;;;;;;;17.45;10.05;;;17.80;99.90;;;;;;5004601;28;20057;-58
2022/09/03 00:19:17;;;;;;;15.10;9.52;;;17.80;99.90;;;;;;5020436;28;20038;-58
2022/09/03 00:22:09;;;;;;;15.07;10.88;;;17.70;99.90;;;;;;5004340;28;20041;-59
2022/09/03 00:24:38;;;;;;;15.82;10.40;;;17.70;99.90;;;;;;5019137;28;20053;-58
2022/09/03 00:27:06;;;;;;;17.52;11.60;;;17.70;99.90;;;;;;5017844;28;20042;-58
2022/09/03 00:29:46;;;;;;;16.02;9.94;;;17.60;99.90;;;;;;4988298;28;10001246;-58
2022/09/03 00:32:17;;;;;;;16.48;11.02;;;17.60;99.90;;;;;;5018402;28;20241;-59
2022/09/03 00:34:50;;;;;;;17.83;10.43;;;17.60;99.90;;;;;;5020314;28;20038;-59
2022/09/03 00:37:17;;;;;;;15.37;12.20;;;17.50;99.90;;;;;;5036927;28;20034;-58
2022/09/03 00:39:44;;;;;;;15.43;10.65;;;17.50;99.90;;;;;;5015863;28;20263;-58
2022/09/03 00:42:45;;;;;;;15.88;11.63;;;17.40;99.90;;;;;;5036612;28;20069;-58
2022/09/03 00:45:20;;;;;;;15.75;10.80;;;17.40;99.90;;;;;;5034471;28;20030;-59
2022/09/03 00:48:25;;;;;;;17.92;11.52;;;17.30;99.90;;;;;;5034820;28;20041;-58
2022/09/03 00:51:28;;;;;;;17.17;11.98;;;17.30;99.90;;;;;;5016850;28;20054;-54
2022/09/03 00:54:30;;;;;;;19.48;12.48;;;17.20;99.90;;;;;;5026045;28;20555;-58
2022/09/03 00:57:15;;;;;;;13.02;11.05;;;17.20;99.90;;;;;;4980220;28;20034;-58
2022/09/03 00:59:59;;;;;;;12.48;9.77;;;17.20;99.90;;;;;;5036649;28;20034;-59
2022/09/03 01:02:53;;;;;;;10.82;9.57;;;17.20;99.90;;;;;;5019906;28;20064;-59
2022/09/03 01:05:33;;;;;;;19.30;10.23;;;17.20;99.90;;;;;;5019669;28;20038;-59
2022/09/03 01:08:19;;;;;;;17.42;9.63;;;17.20;99.90;;;;;;5019440;28;20032;-59
2022/09/03 01:10:57;;;;;;;12.82;9.80;;;17.30;99.90;;;;;;5032004;28;20062;-59
2022/09/03 01:13:45;;;;;;;10.52;9.43;;;17.20;99.90;;;;;;5002894;28;20080;-58
2022/09/03 01:16:25;;;;;;;13.80;10.55;;;17.20;99.90;;;;;;5016587;28;20041;-60
2022/09/03 01:18:52;;;;;;;12.45;9.88;;;17.20;99.90;;;;;;5017354;28;20038;-59
2022/09/03 01:21:40;;;;;;;17.80;10.60;;;17.30;99.90;;;;;;5036323;28;20042;-59
2022/09/03 01:24:22;;;;;;;14.52;9.88;;;17.30;99.90;;;;;;5034859;28;20030;-58
2022/09/03 01:27:00;;;;;;;19.85;10.65;;;17.30;99.90;;;;;;5035852;28;20065;-58
2022/09/03 01:29:34;;;;;;;12.38;9.20;;;17.30;99.90;;;;;;5019906;28;20058;-59
2022/09/03 01:32:05;;;;;;;14.65;10.23;;;17.30;99.90;;;;;;5019677;28;20065;-57
2022/09/03 01:34:32;;;;;;;20.58;9.82;;;17.30;99.90;;;;;;5039372;28;20918;-58
2022/09/03 01:37:04;;;;;;;13.88;9.45;;;17.40;99.90;;;;;;5042382;28;20045;-58
2022/09/03 01:40:17;;;;;;;14.90;11.10;;;17.40;99.90;;;;;;5040762;28;20286;-58
2022/09/03 01:43:14;;;;;;;14.77;10.27;;;17.40;99.90;;;;;;4938232;28;20060;-58
2022/09/03 01:45:50;;;;;;;17.23;10.75;;;17.40;99.90;;;;;;5031936;28;20058;-59
2022/09/03 01:48:36;;;;;;;18.95;10.27;;;17.40;99.90;;;;;;5032500;28;20037;-58
2022/09/03 01:51:12;;;;;;;14.43;9.70;;;17.40;99.90;;;;;;5017061;28;20030;-58
2022/09/03 01:53:57;;;;;;;14.45;11.48;;;17.40;99.90;;;;;;5042220;28;20026;-59
2022/09/03 01:56:33;;;;;;;13.75;11.00;;;17.50;99.90;;;;;;5042368;28;20044;-57
2022/09/03 01:59:22;;;;;;;16.42;11.90;;;17.50;99.90;;;;;;5042483;28;20052;-59
2022/09/03 02:02:01;;;;;;;17.98;11.70;;;17.60;99.90;;;;;;5025972;28;20057;-58
2022/09/03 02:04:30;;;;;;;13.77;11.55;;;17.50;99.90;;;;;;5025365;28;20060;-57
2022/09/03 02:06:59;;;;;;;18.13;11.82;;;17.50;99.90;;;;;;5025822;28;20038;-58
2022/09/03 02:09:26;;;;;;;20.05;12.63;;;17.60;99.90;;;;;;5025432;28;20034;-56
2022/09/03 02:12:08;;;;;;;16.77;13.00;;;17.50;99.90;;;;;;5042486;28;20072;-58
2022/09/03 02:14:34;;;;;;;20.60;12.60;;;17.40;99.90;;;;;;4993651;28;20042;-61
2022/09/03 02:17:02;;;;;;;15.52;12.20;;;17.40;99.90;;;;;;5025316;28;20069;-57
2022/09/03 02:19:28;;;;;;;19.33;12.85;;;17.40;99.90;;;;;;5025422;28;20014;-58
2022/09/03 02:21:56;;;;;;;16.95;13.00;;;17.40;99.90;;;;;;5025581;28;20041;-58
2022/09/03 02:24:24;;;;;;;17.48;12.80;;;17.40;99.90;;;;;;5042000;28;20046;-58
2022/09/03 02:26:51;;;;;;;15.48;12.13;;;17.30;99.90;;;;;;5009081;28;20053;-58
2022/09/03 02:29:18;;;;;;;17.20;12.80;;;17.10;99.90;;;;;;5025207;28;20034;-58
2022/09/03 02:31:45;;;;;;;21.65;14.40;;;17.00;99.90;;;;;;5042467;28;20025;-58
2022/09/03 02:34:12;;;;;;;24.25;13.88;;;17.00;99.90;;;;;;5042200;28;20026;-58
2022/09/03 02:36:45;;;;;;;22.42;14.20;;;17.00;99.90;;;;;;5042226;28;20053;-59
2022/09/03 02:39:13;;;;;;;21.38;12.73;;;17.00;99.90;;;;;;5042007;28;20030;-59
2022/09/03 02:41:39;;;;;;;18.10;14.88;;;17.00;99.90;;;;;;5041859;28;20107;-58
2022/09/03 02:44:15;;;;;;;18.55;15.15;;;17.00;99.90;;;;;;5041995;28;20025;-59
2022/09/03 02:46:50;;;;;;;20.30;15.45;;;17.00;99.90;;;;;;5039437;28;20041;-58
2022/09/03 02:49:17;;;;;;;21.30;14.25;;;17.10;99.90;;;;;;5022078;28;20076;-59
2022/09/03 02:51:44;;;;;;;17.67;15.35;;;17.10;99.90;;;;;;5039054;28;20050;-59
2022/09/03 02:54:11;;;;;;;31.23;15.68;;;17.10;99.90;;;;;;5021938;28;20033;-57
2022/09/03 02:56:38;;;;;;;15.50;13.18;;;17.10;99.90;;;;;;5038299;28;20076;-58
2022/09/03 02:59:06;;;;;;;17.00;13.20;;;17.20;99.90;;;;;;5021907;28;20068;-59
2022/09/03 03:01:33;;;;;;;17.52;13.88;;;17.20;99.90;;;;;;5021922;28;20037;-59
2022/09/03 03:03:59;;;;;;;19.95;14.52;;;17.20;99.90;;;;;;5021833;28;20066;-59
2022/09/03 03:06:26;;;;;;;20.17;14.35;;;17.30;99.90;;;;;;5038573;28;20031;-59
2022/09/03 03:08:54;;;;;;;16.05;14.13;;;17.30;99.90;;;;;;5021879;28;20117;-59
2022/09/03 03:11:21;;;;;;;15.65;13.38;;;17.20;99.90;;;;;;5038295;28;20041;-58
2022/09/03 03:13:48;;;;;;;20.25;13.15;;;17.20;99.90;;;;;;5038570;28;20034;-58
2022/09/03 03:16:15;;;;;;;22.52;13.80;;;17.20;99.90;;;;;;5038063;28;20495;-59
2022/09/03 03:18:45;;;;;;;30.60;15.25;;;17.30;99.90;;;;;;5038580;28;20026;-58
2022/09/03 03:21:13;;;;;;;18.55;13.65;;;17.30;99.90;;;;;;5005598;28;20038;-59
2022/09/03 03:23:40;;;;;;;20.85;15.82;;;17.40;99.90;;;;;;5021634;28;20033;-58
2022/09/03 03:26:12;;;;;;;20.25;14.88;;;17.40;99.90;;;;;;5021591;28;20029;-58
2022/09/03 03:28:39;;;;;;;18.20;15.55;;;17.40;99.90;;;;;;5018279;28;20018;-59
2022/09/03 03:31:10;;;;;;;24.50;15.75;;;17.40;99.90;;;;;;5038221;28;20101;-58
2022/09/03 03:33:37;;;;;;;24.33;17.20;;;17.40;99.90;;;;;;5037997;28;20042;-59
2022/09/03 03:36:06;;;;;;;17.98;15.55;;;17.40;99.90;;;;;;5037794;28;20042;-59
2022/09/03 03:38:33;;;;;;;26.20;15.95;;;17.40;99.90;;;;;;5038223;28;20061;-59
2022/09/03 03:41:09;;;;;;;19.73;16.35;;;17.40;99.90;;;;;;5038035;28;20045;-59
2022/09/03 03:43:35;;;;;;;24.80;17.63;;;17.50;99.90;;;;;;5037550;28;20026;-59
2022/09/03 03:46:02;;;;;;;23.67;18.13;;;17.50;99.90;;;;;;5005218;28;20080;-58
2022/09/03 03:48:30;;;;;;;23.27;18.45;;;17.60;99.90;;;;;;5037639;28;20029;-59
2022/09/03 03:51:00;;;;;;;23.00;18.48;;;17.50;99.90;;;;;;5037982;28;20026;-59
2022/09/03 03:53:27;;;;;;;29.42;18.45;;;17.50;99.90;;;;;;5037631;28;20026;-58
2022/09/03 03:55:55;;;;;;;24.67;18.20;;;17.60;99.90;;;;;;5020970;28;20057;-59
2022/09/03 03:58:22;;;;;;;27.67;20.70;;;17.50;99.90;;;;;;5020239;28;20030;-59
2022/09/03 04:00:50;;;;;;;30.77;20.23;;;17.50;99.90;;;;;;5020844;28;20030;-58
2022/09/03 04:03:17;;;;;;;29.00;20.88;;;17.50;99.90;;;;;;5032304;28;20109;-58
2022/09/03 04:05:58;;;;;;;26.35;19.70;;;17.50;99.90;;;;;;5026502;28;20034;-56
2022/09/03 04:08:29;;;;;;;29.08;20.33;;;17.50;99.90;;;;;;5037467;28;20061;-58
2022/09/03 04:10:59;;;;;;;30.02;21.10;;;17.60;99.90;;;;;;5037496;28;20042;-58
2022/09/03 04:13:34;;;;;;;29.90;21.80;;;17.60;99.90;;;;;;5036970;28;20053;-58
2022/09/03 04:16:34;;;;;;;31.77;22.05;;;17.60;99.90;;;;;;5004547;28;20045;-59
2022/09/03 04:19:01;;;;;;;30.77;24.23;;;17.60;99.90;;;;;;4994561;28;20037;-59
2022/09/03 04:21:29;;;;;;;30.70;25.05;;;17.60;99.90;;;;;;5019954;28;20034;-58
2022/09/03 04:23:56;;;;;;;33.78;26.33;;;17.60;99.90;;;;;;5035586;28;20026;-58
2022/09/03 04:26:25;;;;;;;31.88;25.55;;;17.60;99.90;;;;;;5037070;28;20038;-58
2022/09/03 04:28:52;;;;;;;30.65;26.13;;;17.70;99.90;;;;;;5004298;28;20053;-58
2022/09/03 04:31:20;;;;;;;36.92;28.90;;;17.60;99.90;;;;;;5020332;28;21059;-58
2022/09/03 04:33:47;;;;;;;33.08;27.77;;;17.60;99.90;;;;;;5020139;28;20037;-59
2022/09/03 04:36:15;;;;;;;34.83;28.45;;;17.60;99.90;;;;;;5036825;28;20038;-56
2022/09/03 04:38:43;;;;;;;31.85;28.02;;;17.60;99.90;;;;;;5019944;28;20050;-59
2022/09/03 04:41:13;;;;;;;40.40;29.00;;;17.70;99.90;;;;;;5004023;28;20030;-58
2022/09/03 04:43:43;;;;;;;33.58;28.60;;;17.60;99.90;;;;;;5036576;28;20057;-59
2022/09/03 04:46:13;;;;;;;38.22;27.55;;;17.60;99.90;;;;;;5021040;28;20065;-59
2022/09/03 04:48:46;;;;;;;34.15;29.10;;;17.60;99.90;;;;;;5020142;28;20045;-59
2022/09/03 04:51:14;;;;;;;36.92;29.83;;;17.50;99.90;;;;;;5020312;28;20018;-59
2022/09/03 04:53:42;;;;;;;36.08;29.65;;;17.50;99.90;;;;;;5019716;28;20060;-59
2022/09/03 04:56:17;;;;;;;39.47;29.40;;;17.50;99.90;;;;;;5036641;28;20029;-58
2022/09/03 04:58:44;;;;;;;38.13;29.23;;;17.50;99.90;;;;;;5019712;28;20045;-58
2022/09/03 05:01:16;;;;;;;36.17;30.42;;;17.40;99.90;;;;;;5036507;28;20034;-59
2022/09/03 05:03:43;;;;;;;37.45;29.20;;;17.40;99.90;;;;;;5019963;28;20054;-59
2022/09/03 05:06:10;;;;;;;42.42;30.48;;;17.40;99.90;;;;;;5019564;28;20026;-59
2022/09/03 05:08:39;;;;;;;37.40;27.90;;;17.40;99.90;;;;;;5035847;28;20084;-59
2022/09/03 05:11:06;;;;;;;32.38;27.63;;;17.40;99.90;;;;;;5019659;28;20088;-59
2022/09/03 05:13:34;;;;;;;33.28;27.05;;;17.40;99.90;;;;;;5036076;28;20034;-58
2022/09/03 05:16:05;;;;;;;46.47;30.70;;;17.40;99.90;;;;;;5019207;28;20052;-59
2022/09/03 05:18:32;;;;;;;47.33;30.50;;;17.40;99.90;;;;;;5019153;28;20030;-60
2022/09/03 05:21:00;;;;;;;40.45;30.67;;;17.40;99.90;;;;;;5036142;28;20045;-59
2022/09/03 05:23:27;;;;;;;35.85;28.70;;;17.40;99.90;;;;;;5002915;28;20065;-59
2022/09/03 05:25:58;;;;;;;37.80;29.42;;;17.40;99.90;;;;;;5019310;28;20065;-58
2022/09/03 05:28:26;;;;;;;35.47;29.63;;;17.40;99.90;;;;;;5035691;28;20052;-58
2022/09/03 05:31:01;;;;;;;40.53;28.77;;;17.30;99.90;;;;;;5035696;28;20111;-58
2022/09/03 05:33:28;;;;;;;;;;;17.20;99.90;;;;;;5019643;28;20038;-58
2022/09/03 05:36:00;;;;;;;35.67;28.50;;;17.30;99.90;;;;;;5019288;28;19913;-59
2022/09/03 05:38:27;;;;;;;44.30;29.83;;;17.20;99.90;;;;;;5025588;28;20034;-59
2022/09/03 05:40:58;;;;;;;36.22;29.80;;;17.20;99.90;;;;;;5035866;28;20024;-59
2022/09/03 05:43:26;;;;;;;39.45;29.00;;;17.20;99.90;;;;;;5019086;28;20030;-58
2022/09/03 05:45:59;;;;;;;41.15;30.20;;;17.20;99.90;;;;;;5036011;28;20033;-57
2022/09/03 05:48:30;;;;;;;37.65;29.52;;;17.10;99.90;;;;;;5036153;28;20097;-58
2022/09/03 05:51:10;;;;;;;36.83;29.75;;;17.10;99.90;;;;;;5036104;28;20025;-58
2022/09/03 05:53:38;;;;;;;35.78;28.52;;;17.10;99.90;;;;;;5018126;28;20034;-59
2022/09/03 05:56:06;;;;;;;37.15;29.70;;;17.10;99.90;;;;;;5035669;28;20038;-59
2022/09/03 05:58:34;;;;;;;35.40;29.02;;;17.10;99.90;;;;;;5035796;28;20105;-59
2022/09/03 06:01:17;;;;;;;35.78;28.83;;;17.10;99.90;;;;;;5018953;28;20029;-59
2022/09/03 06:03:44;;;;;;;41.83;29.52;;;17.10;99.90;;;;;;5035525;28;20045;-59
2022/09/03 06:06:12;;;;;;;35.67;29.13;;;17.00;99.90;;;;;;5035718;28;20022;-57
2022/09/03 06:08:40;;;;;;;36.15;28.98;;;17.00;99.90;;;;;;5019005;28;20060;-59
2022/09/03 06:11:08;;;;;;;38.00;30.13;;;17.10;99.90;;;;;;4660303;28;10000383;-60
2022/09/03 06:13:34;;;;;;;38.90;31.25;;;17.10;99.90;;;;;;5033042;28;20069;-58
2022/09/03 06:16:03;;;;;;;47.25;34.55;;;17.10;99.90;;;;;;5033295;28;20045;-59
2022/09/03 06:18:31;;;;;;;39.25;31.63;;;17.00;99.90;;;;;;5015441;28;20046;-58
2022/09/03 06:21:00;;;;;;;39.35;30.83;;;17.10;99.90;;;;;;5017944;28;20053;-58
2022/09/03 06:23:27;;;;;;;41.55;31.10;;;17.10;99.90;;;;;;5003232;28;20068;-59
2022/09/03 06:26:01;;;;;;;39.35;30.27;;;17.10;99.90;;;;;;5004049;28;20170;-58
2022/09/03 06:28:35;;;;;;;38.78;28.77;;;17.10;99.90;;;;;;5017334;28;20030;-58
2022/09/03 06:31:03;;;;;;;37.75;29.27;;;17.20;99.90;;;;;;5036603;28;20030;-58
2022/09/03 06:33:30;;;;;;;40.30;32.33;;;17.20;99.90;;;;;;5035705;28;20030;-58
2022/09/03 06:35:58;;;;;;;37.00;31.00;;;17.30;99.90;;;;;;5019834;28;20033;-59
2022/09/03 06:38:30;;;;;;;46.40;31.98;;;17.30;99.90;;;;;;5036351;28;20034;-59
2022/09/03 06:41:00;;;;;;;44.30;33.20;;;17.30;99.90;;;;;;5036948;28;20040;-58
2022/09/03 06:43:29;;;;;;;41.53;32.95;;;17.40;99.90;;;;;;5036399;28;20033;-60
2022/09/03 06:45:57;;;;;;;40.65;32.75;;;17.40;99.90;;;;;;5019415;28;20060;-58
2022/09/03 06:48:24;;;;;;;47.20;33.78;;;17.50;99.90;;;;;;5036251;28;20070;-58
2022/09/03 06:51:08;;;;;;;47.95;34.17;;;17.60;99.90;;;;;;5019730;28;20069;-59
2022/09/03 06:53:36;;;;;;;44.13;32.42;;;17.60;99.90;;;;;;5010353;28;20065;-58
2022/09/03 06:56:05;;;;;;;41.78;33.33;;;17.70;99.90;;;;;;5002872;28;20057;-60
2022/09/03 06:58:36;;;;;;;46.92;35.13;;;17.80;99.90;;;;;;5025046;28;20140;-58
2022/09/03 07:01:22;;;;;;;45.45;35.42;;;17.80;99.90;;;;;;5036329;28;20114;-59
2022/09/03 07:03:54;;;;;;;41.13;33.50;;;17.90;99.90;;;;;;5019636;28;20091;-57
2022/09/03 07:06:22;;;;;;;50.03;35.58;;;17.90;99.90;;;;;;5003543;28;20045;-59
2022/09/03 07:08:49;;;;;;;46.67;35.60;;;17.90;99.90;;;;;;5020507;28;20037;-59
2022/09/03 07:11:18;;;;;;;39.88;33.78;;;17.90;99.90;;;;;;5020700;28;20053;-58
2022/09/03 07:13:46;;;;;;;38.22;31.88;;;18.00;99.90;;;;;;5038005;28;20033;-60
2022/09/03 07:16:15;;;;;;;35.70;28.15;;;18.10;99.90;;;;;;5036592;28;20030;-59
2022/09/03 07:18:42;;;;;;;34.05;30.20;;;18.20;99.90;;;;;;5019651;28;20053;-59
2022/09/03 07:21:11;;;;;;;39.90;31.35;;;18.20;99.90;;;;;;5038154;28;20026;-59
2022/09/03 07:23:38;;;;;;;35.97;28.80;;;18.30;99.90;;;;;;5021478;28;20077;-57
2022/09/03 07:26:08;;;;;;;37.03;28.75;;;18.40;99.90;;;;;;5034845;28;20040;-58
2022/09/03 07:28:36;;;;;;;39.70;28.63;;;18.50;99.90;;;;;;5036583;28;20110;-59
2022/09/03 07:31:04;;;;;;;29.48;23.52;;;18.50;99.90;;;;;;5037260;28;20030;-59
2022/09/03 07:33:31;;;;;;;28.40;22.35;;;18.60;99.90;;;;;;5013366;28;20033;-59
2022/09/03 07:36:11;;;;;;;31.42;23.70;;;18.80;99.90;;;;;;5020650;28;20042;-58
2022/09/03 07:38:37;;;;;;;28.65;23.52;;;18.80;99.90;;;;;;5037573;28;20042;-57
2022/09/03 07:41:05;;;;;;;26.48;19.95;;;18.90;99.90;;;;;;5037659;28;20041;-58
2022/09/03 07:43:51;;;;;;;23.90;18.77;;;19.00;99.90;;;;;;5037672;28;20090;-58
2022/09/03 07:46:23;;;;;;;24.45;18.70;;;19.00;99.90;;;;;;5037432;28;20026;-58
2022/09/03 07:48:51;;;;;;;15.73;13.88;;;19.10;99.90;;;;;;4989598;28;20057;-59
2022/09/03 07:51:18;;;;;;;12.73;9.95;;;19.20;99.90;;;;;;5037005;28;20093;-58
2022/09/03 07:53:46;;;;;;;14.38;10.50;;;19.30;99.90;;;;;;5020423;28;20025;-59
2022/09/03 07:56:13;;;;;;;11.40;9.05;;;19.30;99.90;;;;;;5036511;28;20046;-58
2022/09/03 07:58:43;;;;;;;14.45;9.43;;;19.40;99.90;;;;;;5020269;28;20030;-56
2022/09/03 08:01:14;;;;;;;10.45;9.13;;;19.50;99.90;;;;;;4658503;28;9999809;-58
2022/09/03 08:03:49;;;;;;;13.32;9.00;;;19.50;99.90;;;;;;5004540;28;20049;-57
2022/09/03 08:06:17;;;;;;;9.60;8.32;;;19.60;99.90;;;;;;5020433;28;20034;-57
2022/09/03 08:08:44;;;;;;;10.80;9.15;;;19.60;99.90;;;;;;5036277;28;20042;-59
2022/09/03 08:11:15;;;;;;;12.35;8.02;;;19.70;99.90;;;;;;5018745;28;20069;-57
2022/09/03 08:13:43;;;;;;;17.08;9.07;;;19.80;99.90;;;;;;5018993;28;20044;-58
2022/09/03 08:16:15;;;;;;;12.05;8.48;;;19.80;99.90;;;;;;5019090;28;20100;-60
2022/09/03 08:18:43;;;;;;;9.13;7.55;;;19.90;99.90;;;;;;5020188;28;20109;-59
2022/09/03 08:21:14;;;;;;;11.13;8.88;;;20.00;99.90;;;;;;5033565;28;20092;-58
2022/09/03 08:23:45;;;;;;;20.23;10.48;;;20.00;99.90;;;;;;5034283;28;20029;-57
2022/09/03 08:26:13;;;;;;;11.65;8.75;;;20.00;99.90;;;;;;5019014;28;20030;-59
2022/09/03 08:28:41;;;;;;;17.80;9.43;;;20.10;99.90;;;;;;5020097;28;20037;-57
2022/09/03 08:31:19;;;;;;;13.65;8.02;;;20.10;99.90;;;;;;5019674;28;20034;-58
2022/09/03 08:33:49;;;;;;;13.68;8.65;;;20.20;99.90;;;;;;5020939;28;20038;-59
2022/09/03 08:36:28;;;;;;;11.07;8.60;;;20.30;99.90;;;;;;5035612;28;20041;-57
2022/09/03 08:38:56;;;;;;;13.07;8.60;;;20.30;99.90;;;;;;5035413;28;20053;-57
2022/09/03 08:41:30;;;;;;;13.77;9.30;;;20.40;99.90;;;;;;5034979;28;20036;-59
2022/09/03 08:44:19;;;;;;;16.98;10.43;;;20.40;99.90;;;;;;5034605;28;20133;-59
2022/09/03 08:46:50;;;;;;;12.40;9.75;;;20.60;99.90;;;;;;5032437;28;20052;-58
2022/09/03 08:49:23;;;;;;;10.43;8.73;;;20.60;99.90;;;;;;5021766;28;20034;-57
2022/09/03 08:51:53;;;;;;;10.77;9.00;;;20.70;99.90;;;;;;5032682;28;20069;-59
2022/09/03 08:54:21;;;;;;;16.90;9.93;;;20.80;99.90;;;;;;5035571;28;20064;-58
2022/09/03 08:56:48;;;;;;;13.32;9.77;;;20.80;99.90;;;;;;5003295;28;20051;-58
2022/09/03 08:59:15;;;;;;;14.80;9.63;;;20.90;99.90;;;;;;5003533;28;20050;-59
2022/09/03 09:01:51;;;;;;;11.45;9.25;;;21.00;99.90;;;;;;5019780;28;20048;-58
2022/09/03 09:04:42;;;;;;;10.18;8.68;;;21.00;99.90;;;;;;5018784;28;20029;-58
2022/09/03 09:07:21;;;;;;;16.83;10.27;;;21.00;99.90;;;;;;5020445;28;20037;-59
2022/09/03 09:10:12;;;;;;;12.38;7.80;;;21.10;99.90;;;;;;5035535;28;20025;-58
2022/09/03 09:13:08;;;;;;;9.02;5.93;;;21.10;99.90;;;;;;5003050;28;20053;-59
2022/09/03 09:15:49;;;;;;;8.07;6.05;;;21.20;99.90;;;;;;5025285;28;20056;-59
2022/09/03 09:18:29;;;;;;;7.70;5.60;;;21.20;99.90;;;;;;5018022;28;20049;-59
2022/09/03 09:21:06;;;;;;;7.60;5.50;;;21.20;99.90;;;;;;5003072;28;20034;-60
2022/09/03 09:23:42;;;;;;;8.15;6.28;;;21.30;99.90;;;;;;5018433;28;20030;-60
2022/09/03 09:26:11;;;;;;;10.60;6.35;;;21.30;99.90;;;;;;5034029;28;20058;-58
2022/09/03 09:28:38;;;;;;;10.50;6.57;;;21.30;99.90;;;;;;5003242;28;20033;-59
2022/09/03 09:31:11;;;;;;;9.00;7.05;;;21.40;99.90;;;;;;5034313;28;20034;-59
2022/09/03 09:33:38;;;;;;;13.35;6.00;;;21.50;99.90;;;;;;5017411;28;20044;-58
2022/09/03 09:36:12;;;;;;;8.45;5.90;;;21.60;99.90;;;;;;5034280;28;20042;-59
2022/09/03 09:38:38;;;;;;;7.85;5.80;;;21.60;99.90;;;;;;5033757;28;20068;-63
2022/09/03 09:41:16;;;;;;;10.07;6.55;;;21.60;99.90;;;;;;5033660;28;20057;-57
2022/09/03 09:43:44;;;;;;;7.93;5.80;;;21.60;99.90;;;;;;5003380;28;20040;-60
2022/09/03 09:46:25;;;;;;;9.80;5.53;;;21.90;99.90;;;;;;5033044;28;20042;-59
2022/09/03 09:48:54;;;;;;;9.20;5.97;;;22.00;99.90;;;;;;5030279;28;20030;-61
2022/09/03 09:51:27;;;;;;;7.57;5.78;;;22.30;99.90;;;;;;5016101;28;20033;-61
2022/09/03 09:54:03;;;;;;;6.80;5.47;;;22.60;99.90;;;;;;5015777;28;20046;-60
2022/09/03 09:56:30;;;;;;;8.93;5.10;;;22.70;99.90;;;;;;5035820;28;20038;-59
2022/09/03 09:59:06;;;;;;;5.82;4.22;;;22.70;99.90;;;;;;5037421;28;20037;-59
2022/09/03 10:01:37;;;;;;;6.72;4.60;;;22.60;99.90;;;;;;5036160;28;20045;-58
2022/09/03 10:04:10;;;;;;;5.15;4.65;;;22.50;99.90;;;;;;5021093;28;20036;-58
2022/09/03 10:09:24;;;;;;;11.25;5.50;;;22.70;99.90;;;;;;5018955;28;20037;-59
2022/09/03 10:12:27;;;;;;;7.05;5.10;;;22.80;99.90;;;;;;5017050;28;20068;-59
2022/09/03 10:15:16;;;;;;;10.88;5.07;;;22.80;99.90;;;;;;5021069;28;20030;-58
2022/09/03 10:17:55;;;;;;;13.38;4.55;;;23.00;99.90;;;;;;5002056;28;20055;-58
2022/09/03 10:20:57;;;;;;;6.80;4.50;;;22.90;99.90;;;;;;5018044;28;20042;-58
2022/09/03 10:23:27;;;;;;;9.43;6.07;;;22.80;99.90;;;;;;4983732;28;20026;-59
2022/09/03 10:26:10;;;;;;;11.52;6.20;;;22.80;99.90;;;;;;5017055;28;20772;-58
2022/09/03 10:28:41;;;;;;;7.13;5.63;;;22.70;99.90;;;;;;5017105;28;20116;-58
2022/09/03 10:31:14;;;;;;;8.60;5.88;;;22.80;99.90;;;;;;4669938;28;10000497;-58
2022/09/03 10:33:52;;;;;;;6.25;4.95;;;22.80;99.90;;;;;;5017728;28;20046;-59
2022/09/03 10:36:33;;;;;;;9.20;6.25;;;22.90;99.90;;;;;;5016386;28;20038;-59
2022/09/03 10:39:21;;;;;;;7.68;4.90;;;22.90;99.90;;;;;;5017566;28;20030;-59
2022/09/03 10:42:02;;;;;;;7.10;4.97;;;22.90;99.90;;;;;;5016460;28;20038;-59
2022/09/03 10:45:03;;;;;;;6.07;4.82;;;22.90;99.90;;;;;;5017776;28;20046;-57
2022/09/03 10:48:04;;;;;;;6.78;4.85;;;22.90;99.90;;;;;;5016521;28;20038;-58
2022/09/03 10:50:49;;;;;;;7.07;5.38;;;22.90;99.90;;;;;;5016504;28;20026;-59
2022/09/03 10:53:34;;;;;;;9.10;4.15;;;22.90;99.90;;;;;;5001245;28;20053;-58
2022/09/03 10:56:03;;;;;;;5.53;2.78;;;23.10;99.90;;;;;;5013117;28;20042;-60
2022/09/03 10:58:41;;;;;;;5.38;2.90;;;23.20;99.90;;;;;;5016395;28;20088;-58
2022/09/03 11:01:39;;;;;;;6.43;3.03;;;23.30;99.90;;;;;;5015230;28;20046;-59
2022/09/03 11:04:15;;;;;;;4.05;2.85;;;23.40;99.90;;;;;;5015029;28;20046;-60
2022/09/03 11:06:47;;;;;;;4.13;3.20;;;23.40;99.90;;;;;;5014717;28;20030;-58
2022/09/03 11:09:21;;;;;;;5.77;2.67;;;23.50;99.90;;;;;;4984466;28;20038;-59
2022/09/03 11:12:00;;;;;;;3.38;2.75;;;23.50;99.90;;;;;;5015375;28;20026;-59
2022/09/03 11:14:52;;;;;;;7.95;3.40;;;23.60;99.90;;;;;;5002631;28;20050;-60
2022/09/03 11:17:41;;;;;;;3.45;2.53;;;23.60;99.90;;;;;;5008228;28;20034;-59
2022/09/03 11:20:15;;;;;;;4.10;3.47;;;23.60;99.90;;;;;;5003537;28;20034;-59
2022/09/03 11:22:43;;;;;;;6.22;3.15;;;23.70;99.90;;;;;;5017710;28;20034;-58
2022/09/03 11:25:10;;;;;;;3.85;2.40;;;23.70;99.90;;;;;;5017649;28;20058;-59
2022/09/03 11:27:40;;;;;;;5.85;2.72;;;23.70;99.90;;;;;;5001393;28;20026;-59
2022/09/03 11:30:09;;;;;;;7.22;2.47;;;23.80;99.90;;;;;;5018146;28;20054;-59
2022/09/03 11:33:16;;;;;;;5.68;3.03;;;23.80;99.90;;;;;;5016871;28;20066;-59
2022/09/03 11:35:43;;;;;;;8.25;2.50;;;23.90;99.90;;;;;;4932017;28;20059;-59
2022/09/03 11:38:17;;;;;;;5.07;2.47;;;24.00;99.90;;;;;;4937684;28;20048;-59
2022/09/03 11:41:13;;;;;;;2.47;2.00;;;24.00;99.90;;;;;;4968357;28;20046;-59
2022/09/03 11:43:41;;;;;;;3.42;2.50;;;24.00;99.90;;;;;;5016289;28;20061;-59
2022/09/03 11:46:12;;;;;;;9.77;2.17;;;24.10;99.90;;;;;;4999438;28;20114;-58
2022/09/03 11:48:44;;;;;;;3.58;2.00;;;24.20;99.90;;;;;;5015847;28;20068;-59
2022/09/03 11:51:20;;;;;;;5.85;3.08;;;24.20;99.90;;;;;;5015637;28;20030;-59
2022/09/03 11:54:03;;;;;;;3.75;2.63;;;24.20;99.90;;;;;;5015771;28;20050;-58
2022/09/03 11:56:31;;;;;;;3.53;2.22;;;24.30;99.90;;;;;;5015825;28;20034;-58
2022/09/03 11:59:02;;;;;;;5.30;2.60;;;24.30;99.90;;;;;;5015602;28;20033;-58
2022/09/03 12:01:30;;;;;;;3.97;2.47;;;24.40;99.90;;;;;;5016303;28;20030;-59
2022/09/03 12:04:06;;;;;;;6.60;2.40;;;24.40;99.90;;;;;;5016341;28;20034;-58
2022/09/03 12:06:51;;;;;;;2.75;2.00;;;24.50;99.70;;;;;;4982459;28;20037;-58
2022/09/03 12:09:32;;;;;;;4.00;2.08;;;24.50;99.90;;;;;;5012980;28;20034;-58
2022/09/03 12:12:26;;;;;;;5.88;3.13;;;24.60;99.90;;;;;;5008201;28;20050;-59
2022/09/03 12:15:09;;;;;;;7.38;2.63;;;24.60;99.90;;;;;;5013535;28;20050;-59
2022/09/03 12:20:42;;;;;;;6.00;2.53;;;24.60;99.60;;;;;;5013563;28;20042;-59
2022/09/03 12:23:27;;;;;;;4.35;2.65;;;24.60;99.90;;;;;;5014848;28;20039;-59
2022/09/03 12:25:53;;;;;;;4.30;2.00;;;24.60;98.70;;;;;;5014669;28;20034;-59
2022/09/03 12:28:23;;;;;;;4.30;1.83;;;24.60;99.90;;;;;;5011151;28;20046;-58
2022/09/03 12:30:52;;;;;;;4.95;2.50;;;24.60;99.90;;;;;;4998733;28;20031;-58
2022/09/03 12:33:20;;;;;;;7.40;2.28;;;24.60;99.90;;;;;;5015193;28;20045;-58
2022/09/03 12:35:57;;;;;;;6.13;1.95;;;24.70;99.90;;;;;;5015358;28;20066;-59
2022/09/03 12:38:26;;;;;;;4.10;2.33;;;24.60;99.70;;;;;;4998700;28;20093;-60
2022/09/03 12:40:53;;;;;;;3.60;2.28;;;24.70;99.90;;;;;;5015164;28;20061;-59
2022/09/03 12:43:40;;;;;;;4.28;2.17;;;24.80;99.90;;;;;;5014205;28;20042;-59
2022/09/03 12:46:15;;;;;;;3.40;2.28;;;24.80;99.90;;;;;;5014815;28;20039;-58
2022/09/03 12:48:52;;;;;;;2.90;1.88;;;24.90;99.90;;;;;;5014962;28;20054;-59
2022/09/03 12:51:41;;;;;;;3.30;2.00;;;25.00;99.80;;;;;;5001407;28;20049;-58
2022/09/03 12:54:20;;;;;;;3.50;1.63;;;25.00;99.90;;;;;;5011662;28;20097;-60
2022/09/03 12:56:56;;;;;;;2.20;1.85;;;25.10;99.90;;;;;;5014291;28;20038;-59
2022/09/03 12:59:22;;;;;;;3.42;2.00;;;25.20;99.20;;;;;;4990697;28;20042;-59
2022/09/03 13:01:51;;;;;;;5.70;1.70;;;25.10;98.90;;;;;;5014276;28;20122;-59
2022/09/03 13:04:22;;;;;;;3.72;1.70;;;25.10;98.30;;;;;;5014448;28;20062;-60
2022/09/03 13:07:02;;;;;;;3.90;2.22;;;25.10;99.10;;;;;;5014257;28;20034;-59
2022/09/03 13:09:31;;;;;;;5.78;2.17;;;25.10;97.00;;;;;;5014971;28;20054;-60
2022/09/03 13:11:58;;;;;;;6.15;2.47;;;25.10;99.30;;;;;;4997830;28;20034;-58